Time;durP1;ratioP1;P1;durP2;ratioP2;P2;SDS_P1;SDS_P2;PMS_P1;PMS_P2;Temp;Humidity;BMP_temperature;BMP_pressure;BME280_temperature;BME280_humidity;BME280_pressure;Samples;Min_cycle;Max_cycle;Signal;HPM_P1;HPM_P2
2021/10/31 00:02:12;;;;;;;;;;;;;;;-144.99;100.00;52407.31;5090424;28;19984;-63
2021/10/31 00:04:39;;;;;;;;;;;;;;;-144.99;100.00;52407.31;5090131;28;19987;-63
2021/10/31 00:07:07;;;;;;;;;;;;;;;-144.99;100.00;52407.31;5090324;28;20042;-63
2021/10/31 00:09:34;;;;;;;;;;;;;;;-144.99;100.00;52403.25;5089080;28;20169;-63
2021/10/31 00:12:00;;;;;;;;;;;;;;;-144.99;100.00;52403.25;5090369;28;20003;-62
2021/10/31 00:14:27;;;;;;;;;;;;;;;-144.99;100.00;52429.75;5087497;28;20030;-61
2021/10/31 00:16:58;;;;;;;;;;;;;;;-144.99;100.00;52433.81;5090594;28;19992;-60
2021/10/31 00:19:24;;;;;;;;;;;;;;;-144.99;100.00;52407.31;5090509;28;20024;-59
2021/10/31 00:21:51;;;;;;;;;;;;;;;-144.99;100.00;52403.25;5089657;28;19972;-63
2021/10/31 00:24:19;;;;;;;;;;;;;;;-144.99;100.00;52411.41;5089904;28;19981;-63
2021/10/31 00:26:45;;;;;;;;;;;;;;;-144.99;100.00;52423.63;5090385;28;19980;-63
2021/10/31 00:29:12;;;;;;;;;;;;;;;-144.99;100.00;52407.31;5090000;28;19980;-63
2021/10/31 00:31:38;;;;;;;;;;;;;;;-144.99;100.00;52452.16;5090416;28;19992;-63
2021/10/31 00:34:05;;;;;;;;;;;;;;;-144.99;100.00;52419.56;5090293;28;19934;-62
2021/10/31 00:36:31;;;;;;;;;;;;;;;-144.99;100.00;52419.56;5089766;28;20545;-63
2021/10/31 00:38:57;;;;;;;;;;;;;;;-144.99;100.00;52399.19;5090003;28;19981;-62
2021/10/31 00:41:25;;;;;;;;;;;;;;;-144.99;100.00;52419.56;5089725;28;19980;-62
2021/10/31 00:43:51;;;;;;;;;;;;;;;-144.99;100.00;52399.19;5088847;28;19997;-62
2021/10/31 00:46:19;;;;;;;;;;;;;;;-144.99;100.00;52395.09;5089238;28;19983;-61
2021/10/31 00:48:45;;;;;;;;;;;;;;;-144.99;100.00;52386.94;5076336;28;20047;-61
2021/10/31 00:51:11;;;;;;;;;;;;;;;-144.99;100.00;52403.25;5088469;28;19980;-60
2021/10/31 00:53:39;;;;;;;;;;;;;;;-144.99;100.00;52427.72;5089081;28;20003;-60
2021/10/31 00:56:06;;;;;;;;;;;;;;;-144.99;100.00;52437.91;5088327;28;19977;-61
2021/10/31 00:58:33;;;;;;;;;;;;;;;-144.99;100.00;52378.78;5089083;28;20075;-60
2021/10/31 01:01:00;;;;;;;;;;;;;;;-144.99;100.00;52427.72;5088644;28;20467;-64
2021/10/31 01:03:26;;;;;;;;;;;;;;;-144.99;100.00;52403.25;5088393;28;20003;-62
2021/10/31 01:05:55;;;;;;;;;;;;;;;-144.99;100.00;52419.56;5088816;28;19985;-62
2021/10/31 01:08:30;;;;;;;;;;;;;;;-144.99;100.00;52427.72;5089135;28;19981;-62
2021/10/31 01:11:10;;;;;;;;;;;;;;;-144.99;100.00;52391.03;5089031;28;19979;-59
2021/10/31 01:13:54;;;;;;;;;;;;;;;-144.99;100.00;52395.09;5088063;28;20437;-59
2021/10/31 01:16:31;;;;;;;;;;;;;;;-144.99;100.00;52403.25;5088449;28;20417;-59
2021/10/31 01:19:16;;;;;;;;;;;;;;;-144.99;100.00;52374.72;5088915;28;20007;-59
2021/10/31 01:21:47;;;;;;;;;;;;;;;-144.99;100.00;52407.31;5091708;28;19977;-60
2021/10/31 01:24:28;;;;;;;;;;;;;;;-144.99;100.00;52407.31;5092956;28;19980;-60
2021/10/31 01:27:00;;;;;;;;;;;;;;;-144.99;100.00;52391.03;5075028;28;19964;-60
2021/10/31 01:29:34;;;;;;;;;;;;;;;-144.99;100.00;52399.19;5093122;28;20344;-60
2021/10/31 01:32:07;;;;;;;;;;;;;;;-144.99;100.00;52380.84;5092529;28;20095;-62
2021/10/31 01:34:40;;;;;;;;;;;;;;;-144.99;100.00;52435.88;5092266;28;19988;-62
2021/10/31 01:37:09;;;;;;;;;;;;;;;-144.99;100.00;52417.53;5092729;28;20004;-62
2021/10/31 01:39:38;;;;;;;;;;;;;;;-144.99;100.00;52388.97;5092454;28;19980;-62
2021/10/31 01:42:10;;;;;;;;;;;;;;;-144.99;100.00;52378.78;5092408;28;20007;-60
2021/10/31 01:44:42;;;;;;;;;;;;;;;-144.99;100.00;52384.91;5092145;28;19997;-60
2021/10/31 01:47:14;;;;;;;;;;;;;;;-144.99;100.00;52431.78;5092019;28;19977;-60
2021/10/31 01:49:44;;;;;;;;;;;;;;;-144.99;100.00;52411.41;5093041;28;19980;-58
2021/10/31 01:52:13;;;;;;;;;;;;;;;-144.99;100.00;52423.63;5092898;28;20001;-58
2021/10/31 01:54:44;;;;;;;;;;;;;;;-144.99;100.00;52403.25;5092259;28;20063;-58
2021/10/31 01:57:12;;;;;;;;;;;;;;;-144.99;100.00;52391.03;5091837;28;19992;-58
2021/10/31 01:59:42;;;;;;;;;;;;;;;-144.99;100.00;52425.66;5092116;28;20384;-58
2021/10/31 02:02:11;;;;;;;;;;;;;;;-144.99;100.00;52399.19;5092053;28;19999;-58
2021/10/31 02:04:38;;;;;;;;;;;;;;;-144.99;100.00;52386.94;5091951;28;20453;-59
2021/10/31 02:07:05;;;;;;;;;;;;;;;-144.99;100.00;52409.38;5091596;28;19984;-58
2021/10/31 02:09:32;;;;;;;;;;;;;;;-144.99;100.00;52417.53;5091452;28;19987;-59
2021/10/31 02:12:01;;;;;;;;;;;;;;;-144.99;100.00;52425.66;5091670;28;20486;-58
2021/10/31 02:14:27;;;;;;;;;;;;;;;-144.99;100.00;52431.78;5091690;28;20054;-59
2021/10/31 02:16:56;;;;;;;;;;;;;;;-144.99;100.00;52399.19;5091741;28;19981;-58
2021/10/31 02:19:23;;;;;;;;;;;;;;;-144.99;100.00;52407.31;5091850;28;19981;-59
2021/10/31 02:21:53;;;;;;;;;;;;;;;-144.99;100.00;52399.19;5091295;28;20356;-59
2021/10/31 02:24:21;;;;;;;;;;;;;;;-144.99;100.00;52391.03;5091958;28;20626;-59
2021/10/31 02:26:49;;;;;;;;;;;;;;;-144.99;100.00;52444.03;5091289;28;19987;-62
2021/10/31 02:29:16;;;;;;;;;;;;;;;-144.99;100.00;52362.50;5091936;28;20450;-62
2021/10/31 02:31:42;;;;;;;;;;;;;;;-144.99;100.00;52403.25;5090701;28;19992;-63
2021/10/31 02:34:09;;;;;;;;;;;;;;;-144.99;100.00;52403.25;5091158;28;20377;-62
2021/10/31 02:36:35;;;;;;;;;;;;;;;-144.99;100.00;52456.25;5091087;28;19976;-61
2021/10/31 02:39:02;;;;;;;;;;;;;;;-144.99;100.00;52429.75;5091030;28;20004;-60
2021/10/31 02:41:30;;;;;;;;;;;;;;;-144.99;100.00;52423.63;5091105;28;19980;-62
2021/10/31 02:43:57;;;;;;;;;;;;;;;-144.99;100.00;52399.19;5090926;28;19980;-62
2021/10/31 02:46:23;;;;;;;;;;;;;;;-144.99;100.00;52407.31;5091116;28;20000;-62
2021/10/31 02:48:50;;;;;;;;;;;;;;;-144.99;100.00;52431.78;5091138;28;20098;-61
2021/10/31 02:51:19;;;;;;;;;;;;;;;-144.99;100.00;52395.09;5090928;28;20007;-61
2021/10/31 02:53:48;;;;;;;;;;;;;;;-144.99;100.00;52397.13;5090842;28;19997;-62
2021/10/31 02:56:18;;;;;;;;;;;;;;;-144.99;100.00;52382.88;5091144;28;19987;-62
2021/10/31 02:58:49;;;;;;;;;;;;;;;-144.99;100.00;52403.25;5090964;28;20000;-61
2021/10/31 03:01:16;;;;;;;;;;;;;;;-144.99;100.00;52395.09;5091234;28;19983;-61
2021/10/31 03:03:43;;;;;;;;;;;;;;;-144.99;100.00;52415.47;5091021;28;19997;-68
2021/10/31 03:06:11;;;;;;;;;;;;;;;-144.99;100.00;52386.94;5090927;28;20022;-57
2021/10/31 03:08:37;;;;;;;;;;;;;;;-144.99;100.00;52386.94;5090906;28;20027;-57
2021/10/31 03:11:05;;;;;;;;;;;;;;;-144.99;100.00;52399.19;5090688;28;19984;-57
2021/10/31 03:13:31;;;;;;;;;;;;;;;-144.99;100.00;52374.72;5087759;28;19999;-57
2021/10/31 03:15:59;;;;;;;;;;;;;;;-144.99;100.00;52444.03;5090884;28;19976;-57
2021/10/31 03:18:26;;;;;;;;;;;;;;;-144.99;100.00;52386.94;5090595;28;20090;-57
2021/10/31 03:20:52;;;;;;;;;;;;;;;-144.99;100.00;52401.22;5090720;28;19981;-57
2021/10/31 03:23:20;;;;;;;;;;;;;;;-144.99;100.00;52427.72;5090141;28;19992;-57
2021/10/31 03:25:46;;;;;;;;;;;;;;;-144.99;100.00;52423.63;5091189;28;20459;-57
2021/10/31 03:28:13;;;;;;;;;;;;;;;-144.99;100.00;52419.56;5089789;28;20429;-57
2021/10/31 03:30:39;;;;;;;;;;;;;;;-144.99;100.00;52370.63;5090891;28;19980;-57
2021/10/31 03:33:07;;;;;;;;;;;;;;;-144.99;100.00;52386.94;5089859;28;19996;-62
2021/10/31 03:35:34;;;;;;;;;;;;;;;-144.99;100.00;52425.66;5090286;28;19983;-62
2021/10/31 03:38:00;;;;;;;;;;;;;;;-144.99;100.00;52415.47;5076709;28;20001;-62
2021/10/31 03:40:27;;;;;;;;;;;;;;;-144.99;100.00;52378.78;5089573;28;19980;-62
2021/10/31 03:42:53;;;;;;;;;;;;;;;-144.99;100.00;52399.19;5106713;22;20255;-64
2021/10/31 03:45:20;;;;;;;;;;;;;;;-144.99;100.00;52378.78;5111556;28;19977;-64
2021/10/31 03:47:48;;;;;;;;;;;;;;;-144.99;100.00;52366.56;5112153;28;20033;-64
2021/10/31 03:50:16;;;;;;;;;;;;;;;-144.99;100.00;52388.97;5111963;28;19980;-69
2021/10/31 03:52:43;;;;;;;;;;;;;;;-144.99;100.00;52403.25;5111767;28;19996;-68
2021/10/31 03:55:10;;;;;;;;;;;;;;;-144.99;100.00;52417.53;5111486;28;19968;-64
2021/10/31 03:57:36;;;;;;;;;;;;;;;-144.99;100.00;52423.63;5087247;28;19983;-65
2021/10/31 04:00:04;;;;;;;;;;;;;;;-144.99;100.00;52439.94;5084617;28;20364;-68
2021/10/31 04:02:30;;;;;;;;;;;;;;;-144.99;100.00;52431.78;5091455;28;20002;-68
2021/10/31 04:04:57;;;;;;;;;;;;;;;-144.99;100.00;52386.94;5091311;28;19990;-67
2021/10/31 04:07:24;;;;;;;;;;;;;;;-144.99;100.00;52399.19;5090984;28;20452;-67
2021/10/31 04:09:51;;;;;;;;;;;;;;;-144.99;100.00;52415.47;5090707;28;19976;-67
2021/10/31 04:12:17;;;;;;;;;;;;;;;-144.99;100.00;52391.03;5091145;28;20338;-66
2021/10/31 04:14:44;;;;;;;;;;;;;;;-144.99;100.00;52415.47;5090539;28;19981;-65
2021/10/31 04:17:10;;;;;;;;;;;;;;;-144.99;100.00;52433.81;5091047;28;19976;-64
2021/10/31 04:19:36;;;;;;;;;;;;;;;-144.99;100.00;52431.78;5090891;28;20000;-65
2021/10/31 04:22:03;;;;;;;;;;;;;;;-144.99;100.00;52382.88;5094158;28;20064;-64
2021/10/31 04:24:31;;;;;;;;;;;;;;;-144.99;100.00;52366.56;5095980;28;19980;-64
2021/10/31 04:26:58;;;;;;;;;;;;;;;-144.99;100.00;52382.88;5090813;28;20352;-65
2021/10/31 04:29:24;;;;;;;;;;;;;;;-144.99;100.00;52439.94;5090682;28;20441;-65
2021/10/31 04:31:51;;;;;;;;;;;;;;;-144.99;100.00;52395.09;5090680;28;19991;-64
2021/10/31 04:34:17;;;;;;;;;;;;;;;-144.99;100.00;52391.03;5090434;28;20010;-65
2021/10/31 04:36:44;;;;;;;;;;;;;;;-144.99;100.00;52374.72;5090315;28;19983;-66
2021/10/31 04:39:10;;;;;;;;;;;;;;;-144.99;100.00;52397.13;5106948;28;20090;-66
2021/10/31 04:41:39;;;;;;;;;;;;;;;-144.99;100.00;52395.09;5110530;28;19988;-65
2021/10/31 04:44:05;;;;;;;;;;;;;;;-144.99;100.00;52378.78;5094722;28;19999;-63
2021/10/31 04:46:32;;;;;;;;;;;;;;;-144.99;100.00;52407.31;5090241;28;20337;-64
2021/10/31 04:48:58;;;;;;;;;;;;;;;-144.99;100.00;52415.47;5090105;28;19988;-63
2021/10/31 04:51:24;;;;;;;;;;;;;;;-144.99;100.00;52378.78;5090271;28;20448;-63
2021/10/31 04:53:51;;;;;;;;;;;;;;;-144.99;100.00;52378.78;5090110;28;19996;-64
2021/10/31 04:56:22;;;;;;;;;;;;;;;-144.99;100.00;52411.41;5089249;28;20452;-64
2021/10/31 04:58:50;;;;;;;;;;;;;;;-144.99;100.00;52435.88;5090144;28;20487;-64
2021/10/31 05:01:17;;;;;;;;;;;;;;;-144.99;100.00;52411.41;5091050;28;19983;-64
2021/10/31 05:03:43;;;;;;;;;;;;;;;-144.99;100.00;52393.06;5089816;28;19996;-64
2021/10/31 05:06:09;;;;;;;;;;;;;;;-144.99;100.00;52403.25;5090258;28;20016;-63
2021/10/31 05:08:36;;;;;;;;;;;;;;;-144.99;100.00;52391.03;5090313;28;20436;-64
2021/10/31 05:11:02;;;;;;;;;;;;;;;-144.99;100.00;52382.88;5089750;28;19985;-64
2021/10/31 05:13:29;;;;;;;;;;;;;;;-144.99;100.00;52395.09;5094008;28;19992;-64
2021/10/31 05:15:58;;;;;;;;;;;;;;;-144.99;100.00;52439.94;5090819;28;19981;-64
2021/10/31 05:18:24;;;;;;;;;;;;;;;-144.99;100.00;52435.88;5090066;28;20353;-63
2021/10/31 05:20:51;;;;;;;;;;;;;;;-144.99;100.00;52397.13;5090170;28;19980;-63
2021/10/31 05:23:17;;;;;;;;;;;;;;;-144.99;100.00;52419.56;5089651;28;19996;-63
2021/10/31 05:25:43;;;;;;;;;;;;;;;-144.99;100.00;52427.72;5090057;28;19984;-63
2021/10/31 05:28:10;;;;;;;;;;;;;;;-144.99;100.00;52431.78;5089300;28;20441;-64
2021/10/31 05:30:36;;;;;;;;;;;;;;;-144.99;100.00;52407.31;5090064;28;20020;-64
2021/10/31 05:33:05;;;;;;;;;;;;;;;-144.99;100.00;52374.72;5090118;28;19996;-64
2021/10/31 05:35:31;;;;;;;;;;;;;;;-144.99;100.00;52427.72;5089178;28;20034;-64
2021/10/31 05:37:58;;;;;;;;;;;;;;;-144.99;100.00;52423.63;5089829;28;19976;-64
2021/10/31 05:40:25;;;;;;;;;;;;;;;-144.99;100.00;52370.63;5090108;28;20028;-68
2021/10/31 05:42:52;;;;;;;;;;;;;;;-144.99;100.00;52427.72;5087435;28;20479;-66
2021/10/31 05:45:19;;;;;;;;;;;;;;;-144.99;100.00;52407.31;5097662;28;19977;-67
2021/10/31 05:47:45;;;;;;;;;;;;;;;-144.99;100.00;52460.31;5089724;28;19977;-67
2021/10/31 05:50:14;;;;;;;;;;;;;;;-144.99;100.00;52415.47;5089949;28;20352;-67
2021/10/31 05:52:40;;;;;;;;;;;;;;;-144.99;100.00;52407.31;5089527;28;20003;-67
2021/10/31 05:55:08;;;;;;;;;;;;;;;-144.99;100.00;52427.72;5089623;28;19984;-67
2021/10/31 05:57:35;;;;;;;;;;;;;;;-144.99;100.00;52378.78;5089548;28;19982;-68
2021/10/31 06:00:05;;;;;;;;;;;;;;;-144.99;100.00;52391.03;5089478;28;19992;-67
2021/10/31 06:02:32;;;;;;;;;;;;;;;-144.99;100.00;52395.09;5089790;28;19997;-67
2021/10/31 06:04:59;;;;;;;;;;;;;;;-144.99;100.00;52399.19;5089782;28;19987;-67
2021/10/31 06:07:27;;;;;;;;;;;;;;;-144.99;100.00;52407.31;5090300;28;20102;-66
2021/10/31 06:09:53;;;;;;;;;;;;;;;-144.99;100.00;52415.47;5094899;28;19980;-67
2021/10/31 06:12:19;;;;;;;;;;;;;;;-144.99;100.00;52411.41;5112982;28;20006;-67
2021/10/31 06:14:46;;;;;;;;;;;;;;;-144.99;100.00;52407.31;5093909;28;19976;-67
2021/10/31 06:17:15;;;;;;;;;;;;;;;-144.99;100.00;52409.38;5093376;28;19981;-66
2021/10/31 06:19:42;;;;;;;;;;;;;;;-144.99;100.00;52431.78;5093251;28;19996;-66
2021/10/31 06:22:08;;;;;;;;;;;;;;;-144.99;100.00;52415.47;5092408;28;20487;-66
2021/10/31 06:24:36;;;;;;;;;;;;;;;-144.99;100.00;52419.56;5092856;28;20453;-69
2021/10/31 06:27:02;;;;;;;;;;;;;;;-144.99;100.00;52403.25;5092870;28;19981;-69
2021/10/31 06:29:29;;;;;;;;;;;;;;;-144.99;100.00;52384.91;5095999;28;20440;-69
2021/10/31 06:31:55;;;;;;;;;;;;;;;-144.99;100.00;52407.31;5115746;28;20018;-69
2021/10/31 06:34:21;;;;;;;;;;;;;;;-144.99;100.00;52399.19;5119161;28;19980;-70
2021/10/31 06:36:48;;;;;;;;;;;;;;;-144.99;100.00;52417.53;5095230;28;19992;-69
2021/10/31 06:39:14;;;;;;;;;;;;;;;-144.99;100.00;52401.22;5092585;28;20003;-69
2021/10/31 06:41:42;;;;;;;;;;;;;;;-144.99;100.00;52413.44;5092721;28;20333;-69
2021/10/31 06:44:08;;;;;;;;;;;;;;;-144.99;100.00;52435.88;5090771;28;19976;-67
2021/10/31 06:46:35;;;;;;;;;;;;;;;-144.99;100.00;52439.94;5092994;28;20009;-66
2021/10/31 06:49:03;;;;;;;;;;;;;;;-144.99;100.00;52413.44;5094675;28;19981;-67
2021/10/31 06:51:29;;;;;;;;;;;;;;;-144.99;100.00;52411.41;5098305;28;19981;-65
2021/10/31 06:53:55;;;;;;;;;;;;;;;-144.99;100.00;52386.94;5096265;28;20173;-66
2021/10/31 06:56:25;;;;;;;;;;;;;;;-144.99;100.00;52386.94;5092451;28;19980;-66
2021/10/31 06:58:52;;;;;;;;;;;;;;;-144.99;100.00;52384.91;5092196;28;19993;-65
2021/10/31 07:01:20;;;;;;;;;;;;;;;-144.99;100.00;52435.88;5094347;28;20030;-65
2021/10/31 07:03:48;;;;;;;;;;;;;;;-144.99;100.00;52399.19;5093207;28;20384;-65
2021/10/31 07:06:15;;;;;;;;;;;;;;;-144.99;100.00;52397.13;5092151;28;19955;-65
2021/10/31 07:08:41;;;;;;;;;;;;;;;-144.99;100.00;52444.03;5091927;28;20337;-65
2021/10/31 07:11:08;;;;;;;;;;;;;;;-144.99;100.00;52439.94;5092090;28;19989;-63
2021/10/31 07:13:34;;;;;;;;;;;;;;;-144.99;100.00;52456.25;5094477;28;19996;-64
2021/10/31 07:16:02;;;;;;;;;;;;;;;-144.99;100.00;52448.09;5092130;28;19972;-63
2021/10/31 07:18:28;;;;;;;;;;;;;;;-144.99;100.00;52403.25;5091601;28;19987;-64
2021/10/31 07:20:55;;;;;;;;;;;;;;;-144.99;100.00;52415.47;5091536;28;20376;-64
2021/10/31 07:23:21;;;;;;;;;;;;;;;-144.99;100.00;52399.19;5091897;28;19996;-64
2021/10/31 07:25:47;;;;;;;;;;;;;;;-144.99;100.00;52407.31;5091922;28;19984;-64
2021/10/31 07:28:14;;;;;;;;;;;;;;;-144.99;100.00;52407.31;5091945;28;20417;-67
2021/10/31 07:30:40;;;;;;;;;;;;;;;-144.99;100.00;52419.56;5092194;28;19981;-68
2021/10/31 07:33:09;;;;;;;;;;;;;;;-144.99;100.00;52386.94;5092318;28;20003;-68
2021/10/31 07:35:35;;;;;;;;;;;;;;;-144.99;100.00;52374.72;5092282;28;19996;-67
2021/10/31 07:38:03;;;;;;;;;;;;;;;-144.99;100.00;52403.25;5101042;28;19980;-67
2021/10/31 07:40:30;;;;;;;;;;;;;;;-144.99;100.00;52403.25;5100306;28;20039;-67
2021/10/31 07:42:57;;;;;;;;;;;;;;;-144.99;100.00;52401.22;5091316;28;19999;-65
2021/10/31 07:45:23;;;;;;;;;;;;;;;-144.99;100.00;52399.19;5090863;28;20437;-65
2021/10/31 07:47:49;;;;;;;;;;;;;;;-144.99;100.00;52382.88;5091157;28;20054;-65
2021/10/31 07:50:17;;;;;;;;;;;;;;;-144.99;100.00;52378.78;5091146;28;20150;-65
2021/10/31 07:52:45;;;;;;;;;;;;;;;-144.99;100.00;52439.94;5091550;28;20003;-66
2021/10/31 07:55:14;;;;;;;;;;;;;;;-144.99;100.00;52358.41;5090736;28;19981;-66
2021/10/31 07:57:42;;;;;;;;;;;;;;;-144.99;100.00;52352.28;5090497;28;19980;-68
2021/10/31 08:00:09;;;;;;;;;;;;;;;-144.99;100.00;52342.09;5091871;28;20051;-68
2021/10/31 08:02:35;;;;;;;;;;;;;;;-144.99;99.27;52348.22;5092168;28;19996;-68
2021/10/31 08:05:02;;;;;;;;;;;;;;;-144.99;96.56;52366.56;5091461;28;19988;-67
2021/10/31 08:07:30;;;;;;;;;;;;;;;-144.99;95.84;52333.94;5091106;28;20421;-67
2021/10/31 08:09:58;;;;;;;;;;;;;;;-144.99;91.96;52350.25;5090735;28;19991;-67
2021/10/31 08:12:25;;;;;;;;;;;;;;;-144.99;90.41;52354.34;5090189;28;20485;-66
2021/10/31 08:14:51;;;;;;;;;;;;;;;-144.99;90.18;52395.09;5090262;28;20429;-67
2021/10/31 08:17:18;;;;;;;;;;;;;;;-144.99;90.53;52382.88;5090568;28;20467;-66
2021/10/31 08:19:47;;;;;;;;;;;;;;;-144.99;92.43;52386.94;5090485;28;19997;-67
2021/10/31 08:22:13;;;;;;;;;;;;;;;-144.99;92.67;52386.94;5090215;28;20095;-66
2021/10/31 08:24:41;;;;;;;;;;;;;;;-144.99;93.36;52348.22;5090511;28;19981;-66
2021/10/31 08:27:08;;;;;;;;;;;;;;;-144.99;93.06;52362.50;5090235;28;19924;-66
2021/10/31 08:29:34;;;;;;;;;;;;;;;-144.99;93.25;52313.56;5090239;28;19981;-66
2021/10/31 08:32:01;;;;;;;;;;;;;;;-144.99;88.32;52358.41;5090447;28;20057;-67
2021/10/31 08:34:27;;;;;;;;;;;;;;;-144.99;88.32;52321.72;5089903;28;20685;-68
2021/10/31 08:36:54;;;;;;;;;;;;;;;-144.99;86.25;52338.03;5090390;28;19976;-69
2021/10/31 08:39:20;;;;;;;;;;;;;;;-144.99;85.96;52395.09;5108853;28;20308;-70
2021/10/31 08:41:48;;;;;;;;;;;;;;;-144.99;86.21;52372.69;5098694;28;19988;-70
2021/10/31 08:44:14;;;;;;;;;;;;;;;-144.99;84.35;52329.88;5088830;28;19980;-70
2021/10/31 08:46:41;;;;;;;;;;;;;;;-144.99;83.65;52321.72;5087308;28;19976;-71
2021/10/31 08:49:07;;;;;;;;;;;;;;;-144.99;81.91;52342.09;5090641;28;19980;-70
2021/10/31 08:51:33;;;;;;;;;;;;;;;-144.99;82.28;52358.41;5090192;28;19980;-72
2021/10/31 08:54:00;;;;;;;;;;;;;;;-144.99;83.36;52378.78;5090252;28;19987;-70
2021/10/31 08:56:27;;;;;;;;;;;;;;;-144.99;82.66;52370.63;5089664;28;19984;-70
2021/10/31 08:58:55;;;;;;;;;;;;;;;-144.99;82.56;52309.50;5079481;28;20084;-70
2021/10/31 09:01:21;;;;;;;;;;;;;;;-144.99;82.25;52338.03;5082893;28;19999;-69
2021/10/31 09:03:50;;;;;;;;;;;;;;;-144.99;80.66;52325.81;5095047;28;19994;-70
2021/10/31 09:06:16;;;;;;;;;;;;;;;-144.99;80.46;52346.19;5110844;28;20509;-69
2021/10/31 09:08:43;;;;;;;;;;;;;;;-144.99;78.25;52333.94;5092300;28;20380;-71
2021/10/31 09:11:09;;;;;;;;;;;;;;;-144.99;77.76;52313.56;5089334;28;19988;-70
2021/10/31 09:13:36;;;;;;;;;;;;;;;-144.99;78.75;52350.25;5087359;28;19992;-69
2021/10/31 09:16:04;;;;;;;;;;;;;;;-144.99;80.71;52391.03;5082828;28;19977;-69
2021/10/31 09:18:31;;;;;;;;;;;;;;;-144.99;81.88;52325.81;5090751;28;19980;-70
2021/10/31 09:20:58;;;;;;;;;;;;;;;-144.99;80.43;52301.34;5102972;28;19996;-70
2021/10/31 09:23:24;;;;;;;;;;;;;;;-144.99;77.95;52317.66;5090177;28;20003;-70
2021/10/31 09:25:51;;;;;;;;;;;;;;;-144.99;77.80;52329.88;5090413;28;20053;-74
2021/10/31 09:28:17;;;;;;;;;;;;;;;-144.99;76.53;52329.88;5090525;28;19980;-68
2021/10/31 09:30:44;;;;;;;;;;;;;;;-144.99;73.95;52317.66;5090342;28;20441;-69
2021/10/31 09:33:12;;;;;;;;;;;;;;;-144.99;72.89;52305.41;5089545;28;20002;-73
2021/10/31 09:35:44;;;;;;;;;;;;;;;-144.99;73.13;52342.09;5085619;28;20027;-69
2021/10/31 09:38:10;;;;;;;;;;;;;;;-144.99;73.72;52295.22;5090848;28;20025;-70
2021/10/31 09:40:38;;;;;;;;;;;;;;;-144.99;71.73;52285.03;5093323;28;20532;-70
2021/10/31 09:43:05;;;;;;;;;;;;;;;-144.99;70.16;52280.97;5092676;28;20435;-71
2021/10/31 09:45:31;;;;;;;;;;;;;;;-144.99;70.32;52276.88;5105356;22;20399;-62
2021/10/31 09:47:59;;;;;;;;;;;;;;;-144.99;69.52;52297.25;5081124;28;20012;-63
2021/10/31 09:50:28;;;;;;;;;;;;;;;-144.99;66.59;52293.19;5084478;28;19973;-62
2021/10/31 09:52:55;;;;;;;;;;;;;;;-144.99;64.94;52317.66;5078686;28;20380;-62
2021/10/31 09:55:22;;;;;;;;;;;;;;;-144.99;66.61;52305.41;5083412;28;19977;-62
2021/10/31 09:57:48;;;;;;;;;;;;;;;-144.99;67.50;52315.59;5078343;28;19977;-63
2021/10/31 10:00:15;;;;;;;;;;;;;;;-144.99;70.36;52364.53;5080356;28;19993;-63
2021/10/31 10:03:04;;;;;;;;;;;;;;;-144.99;71.60;52364.53;5073486;28;19989;-63
2021/10/31 10:05:32;;;;;;;;;;;;;;;-144.99;72.18;52325.81;5076197;28;19987;-62
2021/10/31 10:08:09;;;;;;;;;;;;;;;-144.99;70.73;52303.38;5080239;28;19970;-62
2021/10/31 10:10:42;;;;;;;;;;;;;;;-144.99;68.55;52293.19;5071092;28;19966;-62
2021/10/31 10:13:19;;;;;;;;;;;;;;;-144.99;66.84;52248.34;5076262;28;20560;-62
2021/10/31 10:15:45;;;;;;;;;;;;;;;-144.99;68.69;52342.09;5068181;28;20476;-62
2021/10/31 10:18:11;;;;;;;;;;;;;;;-144.99;70.62;52313.56;5061079;28;20528;-62
2021/10/31 10:20:39;;;;;;;;;;;;;;;-144.99;71.16;52301.34;5068561;28;19996;-62
2021/10/31 10:23:09;;;;;;;;;;;;;;;-144.99;69.41;52285.03;5059372;28;20028;-62
2021/10/31 10:25:39;;;;;;;;;;;;;;;-144.99;68.86;52311.53;5052540;28;19981;-62
2021/10/31 10:28:22;;;;;;;;;;;;;;;-144.99;68.51;52293.19;5065431;28;19980;-62
2021/10/31 10:30:48;;;;;;;;;;;;;;;-144.99;68.32;52297.25;5071324;28;20591;-62
2021/10/31 10:33:19;;;;;;;;;;;;;;;-144.99;68.45;52289.13;5066683;28;19993;-62
2021/10/31 10:35:52;;;;;;;;;;;;;;;-144.99;67.66;52248.34;5068398;28;20188;-63
2021/10/31 10:38:18;;;;;;;;;;;;;;;-144.99;65.30;52219.81;5060957;28;20155;-63
2021/10/31 10:40:45;;;;;;;;;;;;;;;-144.99;60.53;52162.75;5067359;28;20373;-62
2021/10/31 10:43:11;;;;;;;;;;;;;;;-144.99;57.38;52236.13;5065899;28;20069;-61
2021/10/31 10:45:39;;;;;;;;;;;;;;;-144.99;54.61;52195.34;5055709;28;19982;-60
2021/10/31 10:48:08;;;;;;;;;;;;;;;-144.99;52.98;52115.88;5064520;28;20317;-65
2021/10/31 10:50:35;;;;;;;;;;;;;;;-144.99;54.74;52174.97;5057776;28;20356;-63
2021/10/31 10:53:03;;;;;;;;;;;;;;;-144.99;53.92;52203.50;5060943;28;20415;-63
2021/10/31 10:55:34;;;;;;;;;;;;;;;-144.99;54.54;52203.50;5066570;28;19987;-63
2021/10/31 10:58:02;;;;;;;;;;;;;;;-144.99;56.38;52236.13;5062686;28;20012;-63
2021/10/31 11:00:31;;;;;;;;;;;;;;;-144.99;56.30;52256.50;5071338;28;20001;-64
2021/10/31 11:03:01;;;;;;;;;;;;;;;-144.99;58.10;52252.44;5065940;28;20001;-63
2021/10/31 11:05:28;;;;;;;;;;;;;;;-144.99;58.28;52244.28;5053156;28;19981;-64
2021/10/31 11:07:54;;;;;;;;;;;;;;;-144.99;58.09;52268.72;5056851;28;19987;-62
2021/10/31 11:10:23;;;;;;;;;;;;;;;-144.99;57.84;52232.03;5060550;28;19984;-63
2021/10/31 11:12:51;;;;;;;;;;;;;;;-144.99;58.34;52240.19;5060242;28;20075;-63
2021/10/31 11:15:18;;;;;;;;;;;;;;;-144.99;58.85;52327.84;5058600;28;19992;-63
2021/10/31 11:17:46;;;;;;;;;;;;;;;-144.99;59.90;52232.03;5052901;28;19973;-62
2021/10/31 11:20:13;;;;;;;;;;;;;;;-144.99;59.48;52256.50;5055646;28;19996;-64
2021/10/31 11:22:42;;;;;;;;;;;;;;;-144.99;58.61;52256.50;5055276;28;19992;-64
2021/10/31 11:25:10;;;;;;;;;;;;;;;-144.99;57.86;52260.56;5057076;28;19977;-64
2021/10/31 11:27:38;;;;;;;;;;;;;;;-144.99;55.49;52260.56;5056052;28;19973;-64
2021/10/31 11:30:05;;;;;;;;;;;;;;;-144.99;55.32;52211.66;5054098;28;20089;-62
2021/10/31 11:32:31;;;;;;;;;;;;;;;-144.99;55.75;52199.44;5054890;28;20140;-64
2021/10/31 11:35:00;;;;;;;;;;;;;;;-144.99;53.55;52134.22;5061009;28;20020;-63
2021/10/31 11:37:29;;;;;;;;;;;;;;;-144.99;51.19;52126.06;5067852;28;20368;-64
2021/10/31 11:39:57;;;;;;;;;;;;;;;-144.99;48.80;52134.22;5063059;28;20050;-63
2021/10/31 11:42:25;;;;;;;;;;;;;;;-144.99;47.64;52101.59;5057971;28;20461;-63
2021/10/31 11:45:05;;;;;;;;;;;;;;;-144.99;47.04;52095.50;5060618;28;19980;-63
2021/10/31 11:47:32;;;;;;;;;;;;;;;-144.99;46.09;52158.66;5065281;28;19981;-63
2021/10/31 11:50:03;;;;;;;;;;;;;;;-144.99;46.62;52130.13;5068756;28;20275;-69
2021/10/31 11:52:45;;;;;;;;;;;;;;;-144.99;45.61;52101.59;5068328;28;20083;-70
2021/10/31 11:55:30;;;;;;;;;;;;;;;-144.99;45.67;52146.44;5063111;28;19980;-68
2021/10/31 11:58:03;;;;;;;;;;;;;;;-144.99;46.35;52174.97;5066728;28;19985;-61
2021/10/31 12:00:31;;;;;;;;;;;;;;;-144.99;47.70;52193.31;5055077;28;19996;-62
2021/10/31 12:03:05;;;;;;;;;;;;;;;-144.99;47.40;52179.06;5060372;28;19993;-62
2021/10/31 12:05:37;;;;;;;;;;;;;;;-144.99;47.48;52162.75;5045516;28;19973;-62
2021/10/31 12:08:04;;;;;;;;;;;;;;;-144.99;47.09;52136.25;5058085;28;19977;-61
2021/10/31 12:10:31;;;;;;;;;;;;;;;-144.99;46.81;52101.59;5061281;28;19981;-61
2021/10/31 12:13:18;;;;;;;;;;;;;;;-144.99;45.97;52089.38;5061243;28;19989;-61
2021/10/31 12:15:57;;;;;;;;;;;;;;;-144.99;45.49;52081.22;5050499;28;19987;-61
2021/10/31 12:18:40;;;;;;;;;;;;;;;-144.99;45.66;52134.22;5063016;28;20441;-62
2021/10/31 12:21:17;;;;;;;;;;;;;;;-144.99;47.77;52146.44;5062139;28;19999;-63
2021/10/31 12:23:52;;;;;;;;;;;;;;;-144.99;46.79;52101.59;5061884;28;20088;-62
2021/10/31 12:26:19;;;;;;;;;;;;;;;-144.99;45.93;52093.44;5063383;28;20056;-62